createdAt,value
2023-01-27T02:15:29.638Z,100767.11
2023-01-27T02:17:57.255Z,100759.73
2023-01-27T02:20:29.200Z,100757.38
2023-01-27T02:23:21.750Z,100759.19
2023-01-27T02:26:18.484Z,100764.81
2023-01-27T02:28:51.179Z,100767.98
2023-01-27T02:31:22.847Z,100772.13
2023-01-27T02:33:50.485Z,100775.20
2023-01-27T02:36:17.946Z,100780.52
2023-01-27T02:38:50.267Z,100785.17
2023-01-27T02:41:17.358Z,100789.32
2023-01-27T02:43:51.777Z,100786.40
2023-01-27T02:46:25.002Z,100787.26
2023-01-27T02:48:52.432Z,100787.91
2023-01-27T02:51:19.579Z,100782.61
2023-01-27T02:53:52.668Z,100777.48
2023-01-27T02:56:21.153Z,100773.00
2023-01-27T02:58:49.834Z,100775.05
2023-01-27T03:01:27.771Z,100775.31
2023-01-27T03:03:59.184Z,100779.34
2023-01-27T03:06:33.607Z,100773.75
2023-01-27T03:09:04.850Z,100767.34
2023-01-27T03:11:50.442Z,100763.66
2023-01-27T03:14:18.529Z,100756.11
2023-01-27T03:17:06.662Z,100755.59
2023-01-27T03:19:34.011Z,100750.98
2023-01-27T03:22:02.802Z,100751.84
2023-01-27T03:24:31.167Z,100756.16
2023-01-27T03:27:01.290Z,100758.80
2023-01-27T03:29:55.582Z,100755.86
2023-01-27T03:32:30.317Z,100756.27
2023-01-27T03:35:34.125Z,100757.75
2023-01-27T03:38:29.656Z,100760.98
2023-01-27T03:41:25.654Z,100774.16
2023-01-27T03:44:11.847Z,100768.77
2023-01-27T03:46:40.021Z,100761.39
2023-01-27T03:49:07.386Z,100754.02
2023-01-27T03:51:34.723Z,100743.59
2023-01-27T03:54:09.250Z,100740.43
2023-01-27T03:56:38.967Z,100743.05
2023-01-27T03:59:06.231Z,100740.99
2023-01-27T04:01:35.335Z,100743.68
2023-01-27T04:04:21.405Z,100740.04
2023-01-27T04:06:54.828Z,100738.27
2023-01-27T04:09:26.864Z,100742.94
2023-01-27T04:11:54.836Z,100753.59
2023-01-27T04:14:24.362Z,100758.20
2023-01-27T04:17:01.531Z,100757.39
2023-01-27T04:19:28.682Z,100758.48
2023-01-27T04:21:56.130Z,100761.41
2023-01-27T04:24:28.745Z,100757.93
2023-01-27T04:27:00.062Z,100756.88
2023-01-27T04:29:36.520Z,100754.09
2023-01-27T04:32:11.874Z,100752.16
2023-01-27T04:34:39.932Z,100751.62
2023-01-27T04:37:07.600Z,100740.96
2023-01-27T04:39:34.950Z,100734.76
2023-01-27T04:42:02.348Z,100731.41
2023-01-27T04:44:30.274Z,100734.23
2023-01-27T04:46:57.574Z,100737.09
2023-01-27T04:49:26.424Z,100744.30
2023-01-27T04:51:54.233Z,100740.30
2023-01-27T04:54:28.809Z,100738.32
2023-01-27T04:56:58.278Z,100737.64
2023-01-27T04:59:25.478Z,100741.27
2023-01-27T05:01:55.443Z,100743.23
2023-01-27T05:04:26.009Z,100747.16
2023-01-27T05:06:58.178Z,100745.95
2023-01-27T05:09:25.842Z,100745.35
2023-01-27T05:11:58.205Z,100742.29
2023-01-27T05:14:26.257Z,100751.75
2023-01-27T05:16:54.216Z,100760.27
2023-01-27T05:19:21.517Z,100765.17
2023-01-27T05:21:49.367Z,100771.15
2023-01-27T05:24:16.349Z,100771.51
2023-01-27T05:26:51.447Z,100774.14
2023-01-27T05:29:18.597Z,100776.46
2023-01-27T05:31:46.525Z,100786.10
2023-01-27T05:34:13.923Z,100777.69
2023-01-27T05:36:40.926Z,100778.83
2023-01-27T05:39:10.081Z,100780.34
2023-01-27T05:41:37.417Z,100771.45
2023-01-27T05:44:04.917Z,100773.85
2023-01-27T05:46:33.065Z,100772.89
2023-01-27T05:49:01.427Z,100766.59
2023-01-27T05:51:30.167Z,100773.39
2023-01-27T05:53:57.370Z,100773.34
2023-01-27T05:56:26.066Z,100770.26
2023-01-27T05:58:55.581Z,100770.71
2023-01-27T06:01:27.541Z,100784.58
2023-01-27T06:03:54.879Z,100782.88
2023-01-27T06:06:23.459Z,100786.10
2023-01-27T06:08:50.611Z,100780.29
2023-01-27T06:11:19.421Z,100780.52
2023-01-27T06:13:49.419Z,100774.05
2023-01-27T06:16:17.732Z,100771.03
2023-01-27T06:18:45.247Z,100768.20
2023-01-27T06:21:14.565Z,100762.50
2023-01-27T06:23:41.903Z,100763.58
2023-01-27T06:26:16.014Z,100765.28
2023-01-27T06:28:43.267Z,100770.91
2023-01-27T06:31:15.810Z,100769.70
2023-01-27T06:33:42.993Z,100771.80
2023-01-27T06:36:14.544Z,100772.30
2023-01-27T06:38:41.803Z,100770.39
2023-01-27T06:41:09.062Z,100765.58
2023-01-27T06:43:36.314Z,100761.25
2023-01-27T06:46:05.863Z,100758.39
2023-01-27T06:48:33.574Z,100757.98
2023-01-27T06:51:00.622Z,100759.64
2023-01-27T06:53:27.998Z,100751.24
2023-01-27T06:55:56.463Z,100754.52
2023-01-27T06:58:23.715Z,100754.83
2023-01-27T07:00:51.169Z,100752.13
2023-01-27T07:03:18.642Z,100750.05
2023-01-27T07:05:45.672Z,100752.52
2023-01-27T07:08:13.129Z,100753.63
2023-01-27T07:10:42.032Z,100751.09
2023-01-27T07:13:11.322Z,100750.15
2023-01-27T07:15:38.467Z,100747.37
2023-01-27T07:18:05.727Z,100743.23
2023-01-27T07:20:33.405Z,100745.45
2023-01-27T13:11:02.067Z,100453.66
2023-01-27T13:13:30.050Z,100451.05
2023-01-27T13:16:25.369Z,100448.90
2023-01-27T13:18:54.872Z,100458.02
2023-01-27T13:21:24.850Z,100457.45
2023-01-27T13:23:52.722Z,100453.31
2023-01-27T13:26:31.341Z,100453.35
2023-01-27T13:29:17.175Z,100449.98
2023-01-27T13:31:58.008Z,100449.73
2023-01-27T13:34:45.455Z,100450.40
2023-01-27T13:37:23.236Z,100447.66
2023-01-27T13:40:01.927Z,100445.46
2023-01-27T13:42:43.298Z,100446.84
2023-01-27T13:45:14.665Z,100448.40
2023-01-27T13:48:01.938Z,100443.08
2023-01-27T13:50:32.785Z,100447.70
2023-01-27T13:52:59.611Z,100450.95
2023-01-27T13:55:55.878Z,100451.20
2023-01-27T13:58:47.989Z,100451.41
2023-01-27T14:01:25.227Z,100454.41
2023-01-27T14:04:08.287Z,100455.06
2023-01-27T14:06:47.421Z,100460.87
2023-01-27T14:09:21.398Z,100458.19
2023-01-27T14:12:17.673Z,100459.83
2023-01-27T14:14:59.860Z,100455.80
2023-01-27T14:17:47.052Z,100457.86
2023-01-27T14:20:25.679Z,100448.38
2023-01-27T14:23:04.692Z,100452.44
2023-01-27T14:25:33.843Z,100457.41
2023-01-27T14:28:23.741Z,100460.11
2023-01-27T14:30:57.099Z,100459.84
2023-01-27T14:33:43.805Z,100458.23
2023-01-27T14:36:21.164Z,100455.85
2023-01-27T14:39:14.527Z,100451.98
2023-01-27T14:42:07.226Z,100447.54
2023-01-27T14:45:04.533Z,100446.33
2023-01-27T14:47:32.050Z,100450.10
2023-01-27T14:50:20.386Z,100449.02
2023-01-27T14:53:05.713Z,100451.29
2023-01-27T14:56:10.678Z,100445.44
2023-01-27T14:59:11.248Z,100447.13
2023-01-27T15:01:47.487Z,100447.19
2023-01-27T15:04:44.768Z,100447.84
2023-01-27T15:07:33.663Z,100447.39
2023-01-27T15:10:06.916Z,100448.39
2023-01-27T15:13:02.162Z,100449.96
2023-01-27T15:15:56.526Z,100453.27
2023-01-27T15:18:47.783Z,100447.75
2023-01-27T15:21:33.134Z,100449.89
2023-01-27T15:24:25.118Z,100452.70
2023-01-27T15:26:52.554Z,100449.04
2023-01-27T15:29:24.285Z,100444.41
2023-01-27T15:32:25.651Z,100441.95
2023-01-27T15:35:27.719Z,100432.33
2023-01-27T15:38:00.068Z,100438.01
2023-01-27T15:40:27.763Z,100438.41
2023-01-27T15:42:58.375Z,100440.02
2023-01-27T15:45:37.983Z,100443.73
2023-01-27T15:48:18.703Z,100446.47
2023-01-27T15:50:55.975Z,100449.27
2023-01-27T15:53:37.836Z,100451.26
2023-01-27T15:56:05.428Z,100451.84
2023-01-27T15:58:40.151Z,100454.89
2023-01-27T16:01:08.863Z,100451.71
2023-01-27T16:03:43.411Z,100446.75
2023-01-27T16:06:15.845Z,100454.45
2023-01-27T16:09:09.874Z,100453.84
2023-01-27T16:11:41.376Z,100450.98
2023-01-27T16:14:16.837Z,100450.98
2023-01-27T16:16:50.127Z,100450.31
2023-01-27T16:19:17.473Z,100452.11
2023-01-27T16:21:53.310Z,100457.14
2023-01-27T19:58:31.001Z,100380.89
2023-01-27T20:01:02.121Z,100382.63
2023-01-27T20:03:30.840Z,100379.52
2023-01-27T20:05:58.207Z,100380.50
2023-01-27T20:08:28.599Z,100377.16
2023-01-27T20:10:56.365Z,100376.19
2023-01-27T20:13:24.127Z,100373.58
2023-01-27T20:15:53.018Z,100376.88
2023-01-27T20:18:22.868Z,100372.56
2023-01-27T20:20:50.864Z,100376.81
2023-01-27T20:23:18.255Z,100374.00
2023-01-27T20:25:46.225Z,100373.39
2023-01-27T20:28:15.226Z,100370.33
2023-01-27T20:30:42.742Z,100370.09
2023-01-27T20:33:10.232Z,100364.13
2023-01-27T20:35:40.155Z,100365.38
2023-01-27T20:38:10.171Z,100368.40
2023-01-27T20:40:39.946Z,100363.92
2023-01-27T20:43:12.352Z,100370.00
2023-01-27T20:45:40.503Z,100370.57
2023-01-27T20:48:10.028Z,100370.39
2023-01-27T20:50:39.235Z,100370.20
2023-01-27T20:53:07.512Z,100368.54
2023-01-27T20:55:37.064Z,100369.33
2023-01-27T20:58:06.018Z,100360.95
2023-01-27T21:00:33.663Z,100357.22
2023-01-27T21:03:08.443Z,100356.86
2023-01-27T21:05:35.648Z,100352.32
2023-01-27T21:08:03.301Z,100350.20
2023-01-27T21:10:36.800Z,100346.92
2023-01-27T21:13:26.787Z,100346.86
2023-01-27T21:15:54.481Z,100345.52
2023-01-27T21:18:24.158Z,100351.48
2023-01-27T21:20:56.048Z,100350.08
2023-01-27T21:23:23.785Z,100350.09
2023-01-27T21:25:51.661Z,100350.73
2023-01-27T21:28:20.051Z,100351.77
2023-01-27T21:30:47.401Z,100345.95
2023-01-27T21:33:17.505Z,100341.02
2023-01-27T21:35:59.298Z,100336.05
2023-01-27T21:38:29.309Z,100338.05
2023-01-27T21:41:05.305Z,100333.15
2023-01-27T21:43:52.932Z,100330.62
2023-01-27T21:46:20.085Z,100323.79
2023-01-27T21:48:47.916Z,100324.23
2023-01-27T21:51:17.106Z,100318.50
2023-01-27T21:53:44.605Z,100312.04
2023-01-27T21:56:11.893Z,100311.73
2023-01-27T21:58:42.459Z,100309.81
2023-01-27T22:01:15.179Z,100308.44
2023-01-27T22:03:42.925Z,100306.73
2023-01-27T22:06:15.173Z,100306.42
2023-01-27T22:08:43.135Z,100312.25
2023-01-27T22:11:12.485Z,100316.02
2023-01-27T22:13:42.761Z,100309.42
2023-01-27T22:16:13.623Z,100306.39
2023-01-27T22:18:41.251Z,100305.41
2023-01-27T22:21:14.247Z,100302.02
2023-01-27T22:23:41.393Z,100301.09
2023-01-27T22:26:08.744Z,100295.73
2023-01-27T22:28:36.004Z,100293.20
2023-01-27T22:31:03.197Z,100293.43
2023-01-27T22:33:32.060Z,100286.52
2023-01-27T22:36:03.707Z,100287.00
2023-01-27T22:38:31.252Z,100281.95
2023-01-27T22:40:58.924Z,100285.08
2023-01-27T22:43:26.404Z,100278.57
2023-01-27T22:45:58.674Z,100274.14
2023-01-27T22:48:26.102Z,100268.46
2023-01-27T22:50:53.465Z,100264.23
2023-01-27T22:53:20.914Z,100263.05
2023-01-27T22:55:56.556Z,100266.82
2023-01-27T22:58:24.736Z,100268.60
2023-01-27T23:00:52.189Z,100268.81
2023-01-27T23:03:19.585Z,100270.62
2023-01-27T23:05:50.278Z,100261.75
2023-01-27T23:08:20.908Z,100262.17
2023-01-27T23:10:49.624Z,100257.80
2023-01-27T23:13:17.155Z,100252.23
2023-01-27T23:15:51.676Z,100256.73
2023-01-27T23:18:19.155Z,100262.45
2023-01-27T23:20:46.387Z,100262.19
2023-01-27T23:23:14.665Z,100260.30
2023-01-27T23:25:46.438Z,100259.93
2023-01-27T23:28:16.335Z,100262.29
2023-01-27T23:30:44.214Z,100262.80
2023-01-27T23:33:12.475Z,100263.11
2023-01-27T23:35:45.185Z,100264.83
2023-01-27T23:38:30.190Z,100269.83
2023-01-27T23:41:07.627Z,100276.28
2023-01-27T23:43:34.667Z,100283.58
2023-01-27T23:46:01.726Z,100283.02
2023-01-27T23:48:31.251Z,100276.55
2023-01-27T23:50:58.413Z,100274.92
2023-01-27T23:53:25.659Z,100274.15
2023-01-27T23:55:59.239Z,100272.87
2023-01-27T23:58:27.159Z,100273.23
